Aérodrome :
LOGIN :

S'inscrire | Disclaimer

   EN    FR    IT 

 










Légende :    VFR   VFR Marginal   IFR   IFR Intensif   IFR Très Intensif
Visi : 
Plafond : 
>= 8 km
>= 3000ft
5 à 8 km
1000 à 3000 ft
1500m à 5 km
500 à 1000 ft
800 à 1500m
200 à 500 ft
< 800m
< 200 ft
Symboles :   Orages  Brouillard  Fortes neiges  Fortes précipitations  Vent > 20 kt
SIGMETs :   Divers  Orages  Givrage  Turbulence  Onde Orograph.  Cendres Volcan.






- Altitude de l'aérodrome : 405 ft
- Code IATA : ODH


EGVO - RAF Odiham

DERNIER METAR :
  • 081220Z 28006KT CAVOK 08/01 Q1024 NOSIG RMK BLU BLU

METARs EXPIRÉS :
  • 081150Z 26005KT CAVOK 08/01 Q1024 NOSIG RMK BLU BLU
  • 081120Z 24003KT CAVOK 07/02 Q1024 NOSIG RMK BLU BLU
  • 081050Z 24003KT CAVOK 05/01 Q1024 NOSIG RMK BLU BLU
  • 081020Z 25004KT CAVOK 05/01 Q1024 NOSIG RMK BLU BLU
  • 080950Z 23004KT CAVOK 04/01 Q1024 NOSIG RMK BLU BLU

TAF TAF EGVO
Valide du 08 à 12h jusqu'au 09 à 00h UTC


081032Z 0812/0824 28005KT 9999 FEW040



MET'MAP, la Météo Aéronautique d'un coup d'oeil ! - Copyright ORBIFLY Décembre 2007 - Disclaimer

ORBIFLY MET'MAP TEAM :

Programmation & Développement : Alexandra Zaïnal
Sur une idée originale de : Baudouin d'Aumeries
Assistance à la programmation : Marc-Olivier Méhu
Soutien technique & logistique : Manuel Goepfert

Contact : metmap@orbifly.com




SOURCES & CREDITS :

   NOAA